Latest Weather Observations for Hartz Mountains

IDT60801

Issued at 9:35 am EST Wednesday 3 September 2014 (issued every 30 minutes, with the page automatically refreshed every 10 minutes)

About weather observations | Map of weather stations | Latest weather observations for TAS | Other Formats
Station Details ID: 094191 Name: HARTZ MOUNTAIN (KEOGHS PIMPLE) Lat: -43.20 Lon: 146.77 Height: 831.0 m
Data from the previous 72 hours. | See also: Recent months at Hartz Mountains
Date/Time
EST
Temp
°C
App
Temp
°C
Dew
Point
Rel
Hum
%
Delta-T
°C
Wind Press
QNH
hPa
Press
MSL
hPa
Rain
since 9 am
mm
Dir
 
Spd
km/h
Gust
km/h
Spd
kts
Gust
kts
03/09:32am 4.9 -1.7 4.3 96 0.3 WSW 28 46 15 25 - - 0.0
03/09:30am 4.5 -2.5 3.9 96 0.3 WSW 30 46 16 25 - - 0.0
03/09:00am 3.7 -4.1 3.1 96 0.3 WSW 33 44 18 24 - - 2.0
03/08:30am 3.3 -6.0 3.0 98 0.1 WSW 41 48 22 26 - - 2.0
03/08:00am 3.1 -5.4 3.0 99 0.0 WSW 37 48 20 26 - - 2.0
03/07:30am 2.6 -4.7 2.6 100 0.0 WSW 30 37 16 20 - - 2.0
03/07:00am 2.1 -5.3 2.1 100 0.0 WSW 30 43 16 23 - - 2.0
03/06:30am 2.1 -7.3 2.1 100 0.0 WSW 41 50 22 27 - - 2.0
03/06:00am 1.9 -8.9 1.8 99 0.0 WSW 48 59 26 32 - - 1.8
03/05:30am 1.8 -8.1 1.7 99 0.0 WSW 43 54 23 29 - - 1.8
03/05:00am 1.8 -8.1 1.7 99 0.0 WSW 43 54 23 29 - - 1.8
03/04:30am 1.6 -8.9 1.5 99 0.0 WSW 46 57 25 31 - - 1.8
03/04:00am 1.7 -8.8 1.4 98 0.1 WSW 46 56 25 30 - - 1.8
03/03:30am 1.6 -8.9 1.3 98 0.1 WSW 46 57 25 31 - - 1.8
03/03:00am 1.6 -9.3 1.2 97 0.2 WSW 48 57 26 31 - - 1.8
03/02:30am 1.6 -8.6 1.0 96 0.2 WSW 44 54 24 29 - - 1.8
03/02:00am 1.8 -9.2 0.9 94 0.4 SW 48 57 26 31 - - 1.8
03/01:30am 1.4 -9.2 1.0 97 0.2 WSW 46 57 25 31 - - 1.8
03/01:00am 1.7 -9.3 0.8 94 0.4 WSW 48 59 26 32 - - 1.6
03/12:30am 2.0 -8.6 0.5 90 0.6 SW 46 57 25 31 - - 1.6
03/12:00am 1.6 -8.5 0.1 90 0.6 SW 43 57 23 31 - - 1.6
 
Date/Time
EST
Temp
°C
App
Temp
°C
Dew
Point
Rel
Hum
%
Delta-T
°C
Wind Press
QNH
hPa
Press
MSL
hPa
Rain
since 9 am
mm
Dir
 
Spd
km/h
Gust
km/h
Spd
kts
Gust
kts
02/11:30pm 1.2 -9.1 0.2 93 0.4 SW 44 56 24 30 - - 1.6
02/11:00pm 0.7 -7.4 -0.2 94 0.3 WSW 32 41 17 22 - - 1.6
02/10:30pm 0.7 -8.7 -0.2 94 0.3 WSW 39 52 21 28 - - 1.6
02/10:00pm 0.7 -7.6 -0.2 94 0.3 WSW 33 46 18 25 - - 1.6
02/09:30pm 0.6 -7.5 0.0 96 0.2 WSW 32 44 17 24 - - 1.6
02/09:00pm 0.7 -7.5 0.1 96 0.2 SW 33 44 18 24 - - 1.6
02/08:30pm 0.6 -6.4 -0.3 94 0.3 WSW 26 35 14 19 - - 1.6
02/08:00pm 0.6 -6.3 0.2 97 0.2 WSW 26 41 14 22 - - 1.6
02/07:30pm 0.5 -6.8 0.1 97 0.2 WSW 28 37 15 20 - - 1.6
02/07:00pm 0.5 -7.2 -0.1 96 0.2 WSW 30 43 16 23 - - 1.6
02/06:30pm 0.5 -9.0 -0.6 92 0.4 WSW 39 50 21 27 - - 1.6
02/06:00pm 0.6 -8.9 -0.5 92 0.4 WSW 39 46 21 25 - - 1.6
02/05:30pm 0.8 -9.0 -0.5 91 0.5 SW 41 52 22 28 - - 1.6
02/05:01pm 1.0 -8.0 0.4 96 0.2 SW 37 57 20 31 - - 1.6
02/05:00pm 1.2 -7.3 0.6 96 0.2 SW 35 46 19 25 - - 1.6
02/04:30pm 1.6 -6.9 1.0 96 0.2 WSW 35 46 19 25 - - 1.4
02/04:09pm 1.7 -7.1 1.3 97 0.2 WSW 37 56 20 30 - - 1.4
02/04:00pm 1.9 -6.9 1.5 97 0.2 WSW 37 48 20 26 - - 1.4
02/03:30pm 2.1 -6.3 1.7 97 0.2 WSW 35 46 19 25 - - 1.2
02/03:00pm 1.0 -6.6 0.4 96 0.2 WSW 30 39 16 21 - - 1.2
02/02:30pm 2.4 -5.4 1.5 94 0.4 SW 32 43 17 23 - - 0.2
02/02:00pm 2.2 -5.2 1.6 96 0.2 WSW 30 41 16 22 - - 0.2
02/01:30pm 2.4 -4.7 1.4 93 0.4 WSW 28 39 15 21 - - 0.0
02/01:00pm 3.6 -4.2 1.6 87 0.8 WSW 32 41 17 22 - - 0.0
02/12:30pm 3.5 -3.2 1.7 88 0.7 WSW 26 37 14 20 - - 0.0
02/12:00pm 4.1 -3.6 0.1 75 1.6 W 30 41 16 22 - - 0.0
02/11:30am 4.3 -3.8 0.8 78 1.4 WSW 33 43 18 23 - - 0.0
02/11:00am 3.1 -5.9 0.3 82 1.1 WSW 37 48 20 26 - - 0.0
02/10:30am 3.3 -5.7 0.2 80 1.2 W 37 46 20 25 - - 0.0
02/10:00am 3.3 -4.6 0.9 84 1.0 W 32 44 17 24 - - 0.0
02/09:30am 2.8 -5.4 0.2 83 1.0 W 33 44 18 24 - - 0.0
02/09:08am 2.1 -6.0 -0.6 82 1.0 WSW 32 50 17 27 - - 0.0
02/09:00am 2.0 -5.3 -0.2 85 0.9 WSW 28 39 15 21 - - 6.2
02/08:30am 1.3 -6.5 -0.9 85 0.8 WSW 30 39 16 21 - - 6.0
02/08:00am 0.4 -6.2 -0.4 94 0.3 SW 24 35 13 19 - - 6.0
02/07:30am 0.5 -5.4 -0.5 93 0.4 WSW 20 30 11 16 - - 6.0
02/07:00am 0.8 -5.9 -0.8 89 0.6 SW 24 33 13 18 - - 6.0
02/06:30am 0.9 -7.0 -1.7 83 1.0 SW 30 43 16 23 - - 6.0
02/06:00am 0.8 -7.7 -1.8 83 1.0 SW 33 43 18 23 - - 6.0
02/05:30am 0.4 -7.1 -1.7 86 0.8 SW 28 39 15 21 - - 6.0
02/05:00am 0.2 -6.5 -1.4 89 0.6 SW 24 41 13 22 - - 6.0
02/04:30am 0.5 -7.9 -0.8 91 0.5 SW 33 43 18 23 - - 6.0
02/04:00am 0.8 -6.2 -0.5 91 0.5 SSW 26 41 14 22 - - 6.0
02/03:30am 0.8 -6.6 -0.5 91 0.5 SSW 28 41 15 22 - - 6.0
02/03:00am 0.9 -5.3 -0.2 92 0.4 SW 22 33 12 18 - - 6.0
02/02:30am 1.0 -4.2 0.1 94 0.3 SSW 17 28 9 15 - - 6.0
02/02:00am 1.1 -4.7 0.2 94 0.3 S 20 35 11 19 - - 6.0
02/01:30am 1.2 -5.3 0.3 94 0.3 S 24 32 13 17 - - 6.0
02/01:00am 1.3 -6.3 0.6 95 0.3 SSW 30 39 16 21 - - 6.0
02/12:30am 1.2 -6.8 0.5 95 0.3 SSW 32 39 17 21 - - 6.0
02/12:00am 1.3 -6.3 0.6 95 0.3 SSW 30 37 16 20 - - 6.0
 
Date/Time
EST
Temp
°C
App
Temp
°C
Dew
Point
Rel
Hum
%
Delta-T
°C
Wind Press
QNH
hPa
Press
MSL
hPa
Rain
since 9 am
mm
Dir
 
Spd
km/h
Gust
km/h
Spd
kts
Gust
kts
01/11:30pm 1.4 -5.2 -0.1 90 0.6 S 24 32 13 17 - - 6.0
01/11:00pm 1.5 -5.5 -0.3 88 0.7 S 26 33 14 18 - - 6.0
01/10:30pm 2.0 -6.0 0.4 89 0.6 S 32 43 17 23 - - 6.0
01/10:00pm 1.4 -5.8 0.8 96 0.2 S 28 43 15 23 - - 6.0
01/09:30pm 2.0 -3.6 1.4 96 0.2 SSW 20 32 11 17 - - 6.0
01/09:00pm 2.0 -4.8 1.0 93 0.4 S 26 35 14 19 - - 6.0
01/08:30pm 2.0 -5.5 1.1 94 0.4 S 30 43 16 23 - - 6.0
01/08:00pm 2.2 -4.9 1.3 94 0.4 SSW 28 41 15 22 - - 6.0
01/07:30pm 2.1 -4.6 1.4 95 0.3 S 26 35 14 19 - - 6.0
01/07:00pm 1.9 -4.4 1.5 97 0.2 S 24 32 13 17 - - 5.8
01/06:30pm 2.4 -2.5 2.0 97 0.2 S 17 26 9 14 - - 5.8
01/06:00pm 2.5 -2.4 2.1 97 0.2 S 17 30 9 16 - - 5.6
01/05:30pm 2.6 -2.9 2.0 96 0.2 S 20 30 11 16 - - 5.4
01/05:00pm 2.7 -2.8 2.1 96 0.2 S 20 33 11 18 - - 5.0
01/04:32pm 2.6 -4.4 2.0 96 0.2 SSW 28 48 15 26 - - 5.0
01/04:30pm 2.6 -4.0 2.0 96 0.2 SSW 26 48 14 26 - - 5.0
01/04:00pm 2.8 -3.4 2.2 96 0.2 SSW 24 39 13 21 - - 4.8
01/03:41pm 2.9 -5.4 2.3 96 0.3 SSW 35 54 19 29 - - 4.8
01/03:30pm 2.9 -6.1 2.3 96 0.3 SSW 39 54 21 29 - - 4.8
01/03:00pm 2.9 -4.7 2.6 98 0.1 SSW 32 46 17 25 - - 4.8
01/02:30pm 3.3 -4.5 3.0 98 0.1 SSW 33 50 18 27 - - 4.6
01/02:21pm 3.4 -4.7 3.1 98 0.1 SW 35 54 19 29 - - 4.6
01/02:00pm 3.5 -5.0 3.1 97 0.2 SW 37 52 20 28 - - 4.6
01/01:37pm 3.4 -5.1 3.0 97 0.2 SSW 37 56 20 30 - - 4.4
01/01:30pm 3.4 -5.5 3.0 97 0.2 SSW 39 56 21 30 - - 4.4
01/01:22pm 3.4 -4.7 3.0 97 0.2 SSW 35 56 19 30 - - 4.2
01/01:00pm 3.7 -3.8 3.3 97 0.2 SSW 32 44 17 24 - - 4.0
01/12:30pm 4.4 -2.3 3.8 96 0.3 S 28 41 15 22 - - 3.4
01/12:29pm 4.4 -2.3 3.8 96 0.3 S 28 41 15 22 - - 3.4
01/12:00pm 4.4 -4.0 3.7 95 0.3 SW 37 50 20 27 - - 3.4
01/11:45am 4.4 -4.0 3.7 95 0.3 SW 37 57 20 31 - - 3.4
01/11:30am 5.1 -2.3 4.2 94 0.4 SW 32 48 17 26 - - 2.8
01/11:29am 5.2 -1.8 4.3 94 0.4 SW 30 48 16 26 - - 2.8
01/11:28am 5.5 -1.0 4.6 94 0.4 SW 28 44 15 24 - - 2.6
01/11:00am 6.6 2.5 6.0 96 0.3 NW 17 26 9 14 - - 1.4
01/10:30am 6.8 2.7 6.1 95 0.3 NW 17 20 9 11 - - 0.8
01/10:00am 6.9 2.8 6.2 95 0.3 NW 17 20 9 11 - - 0.6
01/09:30am 6.6 2.1 5.9 95 0.3 NW 19 28 10 15 - - 0.0
01/09:00am 6.7 2.0 6.0 95 0.3 NW 20 24 11 13 - - 0.4
01/08:30am 6.9 1.8 6.0 94 0.4 NW 22 30 12 16 - - 0.2
01/08:00am 7.1 1.6 5.7 91 0.7 NW 24 35 13 19 - - 0.2
01/07:30am 6.8 0.1 5.7 93 0.5 NW 30 37 16 20 - - 0.0
01/07:00am 6.8 -0.3 5.7 93 0.5 NW 32 46 17 25 - - 0.0
01/06:31am 6.9 -0.1 5.8 93 0.5 NW 32 50 17 27 - - 0.0
01/06:30am 6.9 -0.1 6.0 94 0.4 NW 32 48 17 26 - - 0.0
01/06:27am 6.8 0.2 5.9 94 0.4 NW 30 48 16 26 - - 0.0
01/06:00am 6.8 0.9 5.9 94 0.4 NW 26 35 14 19 - - 0.0
01/05:30am 7.1 0.8 5.9 92 0.6 WNW 28 37 15 20 - - 0.0
01/05:00am 7.2 2.6 5.5 89 0.8 WNW 19 28 10 15 - - 0.0
01/04:30am 7.4 0.7 5.4 87 0.9 NW 30 46 16 25 - - 0.0
01/04:00am 8.8 1.8 4.2 73 2.1 NW 30 52 16 28 - - 0.0
01/03:45am 8.8 1.9 4.4 74 2.0 NNW 30 48 16 26 - - 0.0
01/03:30am 8.5 1.9 4.1 74 2.0 NNW 28 44 15 24 - - 0.0
01/03:14am 8.5 1.9 4.1 74 2.0 NNW 28 52 15 28 - - 0.0
01/03:00am 8.3 2.4 4.1 75 1.9 NNW 24 43 13 23 - - 0.0
01/02:30am 8.5 2.2 3.9 73 2.1 NNW 26 37 14 20 - - 0.0
01/02:00am 8.6 2.3 3.6 71 2.3 NNW 26 41 14 22 - - 0.0
01/01:30am 8.7 3.6 3.9 72 2.2 NNW 20 43 11 23 - - 0.0
01/01:00am 8.0 2.8 3.8 75 1.9 N 20 33 11 18 - - 0.0
01/12:30am 8.9 2.1 3.3 68 2.5 NNW 28 50 15 27 - - 0.0
01/12:00am 8.2 4.4 3.9 74 2.0 NNW 13 28 7 15 - - 0.0
 
Date/Time
EST
Temp
°C
App
Temp
°C
Dew
Point
Rel
Hum
%
Delta-T
°C
Wind Press
QNH
hPa
Press
MSL
hPa
Rain
since 9 am
mm
Dir
 
Spd
km/h
Gust
km/h
Spd
kts
Gust
kts
31/11:30pm 7.7 5.2 4.5 80 1.5 E 7 11 4 6 - - 0.0
31/11:00pm 8.2 5.2 4.2 76 1.8 N 9 13 5 7 - - 0.0
31/10:30pm 8.4 5.8 4.4 76 1.8 NNE 7 9 4 5 - - 0.0
31/10:00pm 8.8 5.9 4.4 74 2.0 N 9 17 5 9 - - 0.0
31/09:30pm 8.6 5.3 4.6 76 1.9 NNW 11 20 6 11 - - 0.0
31/09:00pm 9.0 5.4 4.8 75 2.0 NNW 13 17 7 9 - - 0.0
31/08:30pm 9.1 4.7 4.9 75 2.0 NNW 17 24 9 13 - - 0.0
31/08:00pm 8.9 4.6 5.1 77 1.8 NNW 17 22 9 12 - - 0.0
31/07:30pm 9.1 4.8 5.1 76 1.9 NNW 17 22 9 12 - - 0.0
31/07:00pm 9.3 4.9 4.9 74 2.1 NNW 17 28 9 15 - - 0.0
31/06:30pm 9.2 4.8 5.0 75 2.0 NNW 17 24 9 13 - - 0.0
31/06:00pm 9.5 5.1 4.9 73 2.2 NNW 17 22 9 12 - - 0.0
31/05:30pm 9.8 7.0 5.2 73 2.2 NNW 9 13 5 7 - - 0.0
31/05:00pm 10.1 6.9 5.1 71 2.4 N 11 15 6 8 - - 0.0
31/04:30pm 10.6 6.1 4.3 65 3.0 N 17 24 9 13 - - 0.0
31/04:00pm 11.0 7.3 4.5 64 3.1 N 13 17 7 9 - - 0.0
31/03:30pm 12.2 7.8 4.7 60 3.6 NW 17 26 9 14 - - 0.0
31/03:00pm 13.0 9.0 4.9 58 3.9 NW 15 24 8 13 - - 0.0
31/02:30pm 13.0 8.1 4.2 55 4.2 NW 19 26 10 14 - - 0.0
31/02:00pm 14.9 8.9 3.1 45 5.6 NW 24 32 13 17 - - 0.0
31/01:30pm 13.7 7.4 3.5 50 4.8 NW 26 35 14 19 - - 0.0
31/01:00pm 14.0 7.7 3.5 49 5.0 WNW 26 39 14 21 - - 0.0
31/12:30pm 13.3 6.3 2.2 47 5.1 NW 28 39 15 21 - - 0.0
31/12:00pm 12.8 7.2 3.2 52 4.5 NW 22 32 12 17 - - 0.0
31/11:30am 11.8 5.8 1.2 48 4.7 WNW 22 32 12 17 - - 0.0
31/11:00am 11.9 6.7 3.4 56 4.0 WNW 20 30 11 16 - - 0.0
31/10:30am 11.2 4.9 1.5 51 4.3 WNW 24 33 13 18 - - 0.0
31/10:00am 11.3 5.0 1.8 52 4.2 WNW 24 35 13 19 - - 0.0

Other Formats:

Comma delimited format used in spreadsheet applications
http://www.bom.gov.au/fwo/IDT60801/IDT60801.94977.axf

JavaScript Object Notation format (JSON) in row-major order
http://www.bom.gov.au/fwo/IDT60801/IDT60801.94977.json